Aérodrome :
LOGIN :

S'inscrire | Disclaimer

   EN    FR    IT 

 










Légende :    VFR   VFR Marginal   IFR   IFR Intensif   IFR Très Intensif
Visi : 
Plafond : 
>= 8 km
>= 3000ft
5 à 8 km
1000 à 3000 ft
1500m à 5 km
500 à 1000 ft
800 à 1500m
200 à 500 ft
< 800m
< 200 ft
Symboles :   Orages  Brouillard  Fortes neiges  Fortes précipitations  Vent > 20 kt
SIGMETs :   Divers  Orages  Givrage  Turbulence  Onde Orograph.  Cendres Volcan.






- Altitude de l'aérodrome : 436 ft
- Code IATA : BTS


LZIB - Bratislava

DERNIER METAR :
  • 022000Z VRB02KT CAVOK 03/M09 Q1011

METARs EXPIRÉS :
  • 021930Z 15005KT CAVOK 04/M08 Q1011
  • 021900Z 14005KT CAVOK 04/M07 Q1011
  • 021830Z 14006KT CAVOK 05/M07 Q1011
  • 021800Z 14006KT CAVOK 06/M08 Q1011 NOSIG
  • 021730Z 15007KT CAVOK 07/M08 Q1011 NOSIG
  • 021700Z 14008KT CAVOK 09/M08 Q1011 NOSIG

TAF TAF LZIB
Valide du 02 à 18h jusqu'au 03 à 18h UTC


021700Z 0218/0318 16010KT CAVOK
BECMG 0219/0221 03006KT
BECMG 0309/0311 29012KT 9999 FEW045 BKN060
BECMG 0316/0318 34008KT CAVOK



MET'MAP, la Météo Aéronautique d'un coup d'oeil ! - Copyright ORBIFLY Décembre 2007 - Disclaimer

ORBIFLY MET'MAP TEAM :

Programmation & Développement : Alexandra Zaïnal
Sur une idée originale de : Baudouin d'Aumeries
Assistance à la programmation : Marc-Olivier Méhu
Soutien technique & logistique : Manuel Goepfert

Contact : metmap@orbifly.com




SOURCES & CREDITS :

   NOAA